createdAt,value
2018-09-23T00:01:54.427Z,10.30
2018-09-23T00:04:23.094Z,10.67
2018-09-23T00:06:51.781Z,12.07
2018-09-23T00:09:20.468Z,13.27
2018-09-23T00:11:49.437Z,10.23
2018-09-23T00:14:18.092Z,12.13
2018-09-23T00:16:46.384Z,12.57
2018-09-23T00:19:15.088Z,12.37
2018-09-23T00:21:43.468Z,12.87
2018-09-23T00:24:12.173Z,11.50
2018-09-23T00:26:40.843Z,11.07
2018-09-23T00:29:09.520Z,12.70
2018-09-23T00:31:38.186Z,10.63
2018-09-23T00:34:06.847Z,12.00
2018-09-23T00:36:35.536Z,12.53
2018-09-23T00:39:05.700Z,12.93
2018-09-23T00:41:34.385Z,12.50
2018-09-23T00:44:03.105Z,12.80
2018-09-23T00:46:31.431Z,15.20
2018-09-23T00:49:00.110Z,13.50
2018-09-23T00:51:28.824Z,15.03
2018-09-23T00:53:57.517Z,12.20
2018-09-23T00:56:26.184Z,13.23
2018-09-23T00:58:54.937Z,13.70
2018-09-23T01:01:23.596Z,13.03
2018-09-23T01:03:52.301Z,14.27
2018-09-23T01:06:20.965Z,19.53
2018-09-23T01:08:49.655Z,22.83
2018-09-23T01:11:18.293Z,23.03
2018-09-23T01:13:46.960Z,23.97
2018-09-23T01:16:15.670Z,27.40
2018-09-23T01:18:44.342Z,21.70
2018-09-23T01:21:13.038Z,28.07
2018-09-23T01:23:41.715Z,24.73
2018-09-23T01:26:10.469Z,25.50
2018-09-23T01:28:38.753Z,24.23
2018-09-23T01:31:07.485Z,22.57
2018-09-23T01:33:36.253Z,25.00
2018-09-23T01:36:04.906Z,24.27
2018-09-23T01:38:33.641Z,26.40
2018-09-23T01:41:02.292Z,24.13
2018-09-23T01:43:30.961Z,27.50
2018-09-23T01:45:59.628Z,24.40
2018-09-23T01:48:28.289Z,22.70
2018-09-23T01:50:57.043Z,24.87
2018-09-23T01:53:25.722Z,25.63
2018-09-23T01:55:54.083Z,23.13
2018-09-23T01:58:22.769Z,22.57
2018-09-23T02:00:51.459Z,22.00
2018-09-23T02:03:20.217Z,21.70
2018-09-23T02:05:48.927Z,25.77
2018-09-23T02:08:17.628Z,25.73
2018-09-23T02:10:46.342Z,23.30
2018-09-23T02:13:15.027Z,26.93
2018-09-23T02:15:43.695Z,25.20
2018-09-23T02:18:12.398Z,24.93
2018-09-23T02:20:41.045Z,27.37
2018-09-23T02:23:09.692Z,30.20
2018-09-23T02:25:38.381Z,31.67
2018-09-23T02:28:07.085Z,26.00
2018-09-23T02:30:35.780Z,28.87
2018-09-23T02:33:04.435Z,28.90
2018-09-23T02:35:32.809Z,31.07
2018-09-23T02:38:01.489Z,28.10
2018-09-23T02:40:30.215Z,24.37
2018-09-23T02:42:58.853Z,26.10
2018-09-23T02:45:27.176Z,28.00
2018-09-23T02:47:55.856Z,26.00
2018-09-23T02:50:24.577Z,30.10
2018-09-23T02:52:53.374Z,24.07
2018-09-23T02:55:22.032Z,27.63
2018-09-23T02:57:50.719Z,25.37
2018-09-23T03:00:19.457Z,27.57
2018-09-23T03:02:48.138Z,24.33
2018-09-23T03:05:16.473Z,29.97
2018-09-23T03:07:45.153Z,26.07
2018-09-23T03:10:13.930Z,27.03
2018-09-23T03:12:42.264Z,25.10
2018-09-23T03:15:10.934Z,25.30
2018-09-23T03:17:39.610Z,23.10
2018-09-23T03:20:07.939Z,23.40
2018-09-23T03:22:36.535Z,22.63
2018-09-23T03:25:04.846Z,21.70
2018-09-23T03:27:33.517Z,22.23
2018-09-23T03:30:02.339Z,24.60
2018-09-23T03:32:31.090Z,20.03
2018-09-23T03:34:59.745Z,25.80
2018-09-23T03:37:28.415Z,22.37
2018-09-23T03:39:57.084Z,23.47
2018-09-23T03:42:25.915Z,20.80
2018-09-23T03:44:54.589Z,21.03
2018-09-23T03:47:23.265Z,18.60
2018-09-23T03:49:51.934Z,20.50
2018-09-23T03:52:27.114Z,19.90
2018-09-23T03:54:55.797Z,20.37
2018-09-23T03:57:24.622Z,19.30
2018-09-23T03:59:52.976Z,19.07
2018-09-23T04:02:21.618Z,17.33
2018-09-23T04:04:50.272Z,17.33
2018-09-23T04:07:18.974Z,17.67
2018-09-23T04:09:47.659Z,19.07
2018-09-23T04:12:16.378Z,17.47
2018-09-23T04:14:45.008Z,24.13
2018-09-23T04:17:13.701Z,20.00
2018-09-23T04:19:42.349Z,20.30
2018-09-23T04:22:11.102Z,18.30
2018-09-23T04:24:39.759Z,23.30
2018-09-23T04:27:08.450Z,23.40
2018-09-23T04:29:36.810Z,24.77
2018-09-23T04:32:05.174Z,22.17
2018-09-23T04:34:33.899Z,23.40
2018-09-23T04:37:02.220Z,23.40
2018-09-23T04:39:30.553Z,24.73
2018-09-23T04:41:59.234Z,18.63
2018-09-23T04:44:27.879Z,19.77
2018-09-23T04:46:56.553Z,20.50
2018-09-23T04:49:24.981Z,19.53
2018-09-23T04:51:53.350Z,16.87
2018-09-23T04:54:22.000Z,20.67
2018-09-23T04:56:50.681Z,17.77
2018-09-23T04:59:19.377Z,17.27
2018-09-23T05:01:48.034Z,15.50
2018-09-23T05:04:16.730Z,21.33
2018-09-23T05:06:45.417Z,20.97
2018-09-23T05:09:14.068Z,15.80
2018-09-23T05:11:42.755Z,16.30
2018-09-23T05:14:11.363Z,17.53
2018-09-23T05:16:40.130Z,14.60
2018-09-23T05:19:08.867Z,18.57
2018-09-23T05:21:37.604Z,17.07
2018-09-23T05:24:06.309Z,17.17
2018-09-23T05:26:34.608Z,14.50
2018-09-23T05:29:03.287Z,16.93
2018-09-23T05:31:31.973Z,20.97
2018-09-23T05:34:00.667Z,19.73
2018-09-23T05:36:29.365Z,20.63
2018-09-23T05:38:58.013Z,25.30
2018-09-23T05:41:26.373Z,20.30
2018-09-23T05:43:55.133Z,17.00
2018-09-23T05:46:23.835Z,15.20
2018-09-23T05:48:52.515Z,14.63
2018-09-23T05:51:21.245Z,15.27
2018-09-23T05:53:49.931Z,13.73
2018-09-23T05:56:18.601Z,17.50
2018-09-23T05:58:47.308Z,16.53
2018-09-23T06:01:16.027Z,14.73
2018-09-23T06:03:44.673Z,13.83
2018-09-23T06:06:12.964Z,13.53
2018-09-23T06:08:41.669Z,16.47
2018-09-23T06:11:10.409Z,13.70
2018-09-23T06:13:39.047Z,12.87
2018-09-23T06:16:07.769Z,14.70
2018-09-23T06:18:36.422Z,16.33
2018-09-23T06:21:05.104Z,15.13
2018-09-23T06:23:33.793Z,13.83
2018-09-23T06:26:02.436Z,17.93
2018-09-23T06:28:31.170Z,13.77
2018-09-23T06:30:59.830Z,14.63
2018-09-23T06:33:28.484Z,12.93
2018-09-23T06:35:57.153Z,14.00
2018-09-23T06:38:25.816Z,13.00
2018-09-23T06:40:54.554Z,12.83
2018-09-23T06:43:23.430Z,12.67
2018-09-23T06:45:51.813Z,12.57
2018-09-23T06:48:20.469Z,13.37
2018-09-23T06:50:49.416Z,11.87
2018-09-23T06:53:18.125Z,13.90
2018-09-23T06:55:46.808Z,16.47
2018-09-23T06:58:15.494Z,14.33
2018-09-23T07:00:44.229Z,12.20
2018-09-23T07:03:12.885Z,15.23
2018-09-23T07:05:41.535Z,13.07
2018-09-23T07:08:09.824Z,14.27
2018-09-23T07:10:38.515Z,11.87
2018-09-23T07:13:07.189Z,13.80
2018-09-23T07:15:35.826Z,11.90
2018-09-23T07:18:04.580Z,13.23
2018-09-23T07:20:33.303Z,14.57
2018-09-23T07:23:01.971Z,10.67
2018-09-23T07:25:30.620Z,11.40
2018-09-23T07:27:58.915Z,9.97
2018-09-23T07:30:27.630Z,9.10
2018-09-23T07:32:55.899Z,14.73
2018-09-23T07:35:24.962Z,11.33
2018-09-23T07:37:53.704Z,9.73
2018-09-23T07:40:22.370Z,9.90
2018-09-23T07:42:51.072Z,9.77
2018-09-23T07:45:19.957Z,7.37
2018-09-23T07:47:48.625Z,10.33
2018-09-23T07:50:17.341Z,10.00
2018-09-23T07:52:45.720Z,9.97
2018-09-23T07:55:14.412Z,10.40
2018-09-23T07:57:43.448Z,11.33
2018-09-23T08:00:12.119Z,10.27
2018-09-23T08:02:40.797Z,11.80
2018-09-23T08:05:09.458Z,10.70
2018-09-23T08:07:38.311Z,9.17
2018-09-23T08:10:06.983Z,10.93
2018-09-23T08:12:35.708Z,11.30
2018-09-23T08:15:04.538Z,10.97
2018-09-23T08:17:33.105Z,10.60
2018-09-23T08:20:01.945Z,12.33
2018-09-23T08:22:30.573Z,10.57
2018-09-23T08:24:59.244Z,9.83
2018-09-23T08:27:27.972Z,10.20
2018-09-23T08:29:57.199Z,12.67
2018-09-23T08:32:25.533Z,9.43
2018-09-23T08:34:53.861Z,8.80
2018-09-23T08:37:22.632Z,10.63
2018-09-23T08:39:51.332Z,10.03
2018-09-23T08:42:20.080Z,12.60
2018-09-23T08:44:48.762Z,8.83
2018-09-23T08:47:17.429Z,8.77
2018-09-23T08:49:46.091Z,8.60
2018-09-23T08:52:14.650Z,8.93
2018-09-23T08:54:43.300Z,8.67
2018-09-23T08:57:11.993Z,8.43
2018-09-23T08:59:40.677Z,10.33
2018-09-23T09:02:09.322Z,11.03
2018-09-23T09:04:37.986Z,12.00
2018-09-23T09:07:06.707Z,10.57
2018-09-23T09:09:35.412Z,11.13
2018-09-23T09:12:04.070Z,9.13
2018-09-23T09:14:32.742Z,10.00
2018-09-23T09:17:01.460Z,9.97
2018-09-23T09:19:30.162Z,9.60
2018-09-23T09:21:58.821Z,10.97
2018-09-23T09:24:27.505Z,9.87
2018-09-23T09:26:56.254Z,9.63
2018-09-23T09:29:24.939Z,9.63
2018-09-23T09:31:53.617Z,9.27
2018-09-23T09:34:22.281Z,12.40
2018-09-23T09:36:50.948Z,9.90
2018-09-23T09:39:19.590Z,10.57
2018-09-23T09:41:47.947Z,12.50
2018-09-23T09:44:16.730Z,10.20
2018-09-23T09:46:45.406Z,10.90
2018-09-23T09:49:14.436Z,12.87
2018-09-23T09:51:43.084Z,10.40
2018-09-23T09:54:11.784Z,12.70
2018-09-23T09:56:40.500Z,11.57
2018-09-23T09:59:09.505Z,12.30
2018-09-23T10:01:38.187Z,11.33
2018-09-23T10:04:06.985Z,11.17
2018-09-23T10:06:35.347Z,9.83
2018-09-23T10:09:05.269Z,10.63
2018-09-23T10:11:34.029Z,13.00
2018-09-23T10:14:02.712Z,11.60
2018-09-23T10:16:31.370Z,11.63
2018-09-23T10:18:59.703Z,14.20
2018-09-23T10:21:28.059Z,15.03
2018-09-23T10:23:56.839Z,13.87
2018-09-23T10:26:25.495Z,16.83
2018-09-23T10:28:54.199Z,10.97
2018-09-23T10:31:22.987Z,11.53
2018-09-23T10:33:51.234Z,12.90
2018-09-23T10:36:19.911Z,12.43
2018-09-23T10:38:48.549Z,15.03
2018-09-23T10:41:17.276Z,11.53
2018-09-23T10:43:45.631Z,13.70
2018-09-23T10:46:14.291Z,10.83
2018-09-23T10:48:42.628Z,10.07
2018-09-23T10:51:11.289Z,15.63
2018-09-23T10:53:39.953Z,11.17
2018-09-23T10:56:08.712Z,10.67
2018-09-23T10:58:37.454Z,13.43
2018-09-23T11:01:06.179Z,15.83
2018-09-23T11:03:34.927Z,12.43
2018-09-23T11:06:03.679Z,13.80
2018-09-23T11:08:32.430Z,13.67
2018-09-23T11:11:01.082Z,20.70
2018-09-23T11:13:29.745Z,17.40
2018-09-23T11:15:58.463Z,18.73
2018-09-23T11:18:26.850Z,14.10
2018-09-23T11:20:55.203Z,13.20
2018-09-23T11:23:23.680Z,14.97
2018-09-23T11:25:52.280Z,11.93
2018-09-23T11:28:21.016Z,13.83
2018-09-23T11:30:50.100Z,12.67
2018-09-23T11:33:18.834Z,13.57
2018-09-23T11:35:47.994Z,15.40
2018-09-23T11:38:16.824Z,18.73
2018-09-23T11:40:45.175Z,17.30
2018-09-23T11:43:14.082Z,16.47
2018-09-23T11:45:43.050Z,16.73
2018-09-23T11:48:11.922Z,18.17
2018-09-23T11:50:40.722Z,17.63
2018-09-23T11:53:09.562Z,17.57
2018-09-23T11:55:38.281Z,19.03
2018-09-23T11:58:06.993Z,19.03
2018-09-23T12:00:35.712Z,18.27
2018-09-23T12:03:04.031Z,18.50
2018-09-23T12:05:32.909Z,18.57
2018-09-23T12:08:01.741Z,16.17
2018-09-23T12:10:30.290Z,20.10
2018-09-23T12:12:59.075Z,22.23
2018-09-23T12:15:27.504Z,21.87
2018-09-23T12:17:56.329Z,22.33
2018-09-23T12:20:24.747Z,23.60
2018-09-23T12:22:53.209Z,26.33
2018-09-23T12:25:22.093Z,23.63
2018-09-23T12:27:50.736Z,22.83
2018-09-23T12:30:19.444Z,20.93
2018-09-23T12:32:47.780Z,23.37
2018-09-23T12:35:16.089Z,25.10
2018-09-23T12:37:44.828Z,23.50
2018-09-23T12:40:13.686Z,30.13
2018-09-23T12:42:42.431Z,24.67
2018-09-23T12:45:10.767Z,26.20
2018-09-23T12:47:39.096Z,21.90
2018-09-23T12:50:07.580Z,21.40
2018-09-23T12:52:36.397Z,21.30
2018-09-23T12:55:05.334Z,21.63
2018-09-23T12:57:34.133Z,19.50
2018-09-23T13:00:02.914Z,20.60
2018-09-23T13:02:31.512Z,16.47
2018-09-23T13:04:59.918Z,18.07
2018-09-23T13:07:29.242Z,20.20
2018-09-23T13:09:58.821Z,23.27
2018-09-23T13:12:27.636Z,18.80
2018-09-23T13:14:56.037Z,17.87
2018-09-23T13:17:24.930Z,23.47
2018-09-23T13:19:53.441Z,23.67
2018-09-23T13:22:21.857Z,16.90
2018-09-23T13:24:50.633Z,19.10
2018-09-23T13:27:19.035Z,20.83
2018-09-23T13:29:47.906Z,22.67
2018-09-23T13:32:16.729Z,20.77
2018-09-23T13:34:45.110Z,21.33
2018-09-23T13:37:13.758Z,22.20
2018-09-23T13:39:42.024Z,20.00
2018-09-23T13:42:10.841Z,16.20
2018-09-23T13:44:39.674Z,17.30
2018-09-23T13:47:08.487Z,19.67
2018-09-23T13:49:37.286Z,18.87
2018-09-23T13:52:06.110Z,17.20
2018-09-23T13:54:34.854Z,18.77
2018-09-23T13:57:03.668Z,20.20
2018-09-23T13:59:32.531Z,22.87
2018-09-23T14:02:01.273Z,22.07
2018-09-23T14:04:30.039Z,21.83
2018-09-23T14:06:58.950Z,22.10
2018-09-23T14:09:27.813Z,20.67
2018-09-23T14:11:56.814Z,20.63
2018-09-23T14:14:25.256Z,14.67
2018-09-23T14:16:54.009Z,12.63
2018-09-23T14:19:22.446Z,12.83
2018-09-23T14:21:51.262Z,12.57
2018-09-23T14:24:20.064Z,14.80
2018-09-23T14:26:48.950Z,12.43
2018-09-23T14:29:17.741Z,10.97
2018-09-23T14:31:46.088Z,10.17
2018-09-23T14:34:14.828Z,9.93
2018-09-23T14:36:43.209Z,15.40
2018-09-23T14:39:11.952Z,17.93
2018-09-23T14:41:40.620Z,11.10
2018-09-23T14:44:09.110Z,12.60
2018-09-23T14:46:37.942Z,11.97
2018-09-23T14:49:06.666Z,9.10
2018-09-23T14:51:35.046Z,8.87
2018-09-23T14:54:03.473Z,9.43
2018-09-23T14:56:32.226Z,10.83
2018-09-23T14:59:00.690Z,12.67
2018-09-23T15:01:29.366Z,12.40
2018-09-23T15:03:58.144Z,11.67
2018-09-23T15:06:26.512Z,11.73
2018-09-23T15:08:55.251Z,13.53
2018-09-23T15:11:23.557Z,12.17
2018-09-23T15:13:52.328Z,14.40
2018-09-23T15:16:21.040Z,13.20
2018-09-23T15:18:49.726Z,13.40
2018-09-23T15:21:18.447Z,11.77
2018-09-23T15:23:47.163Z,10.10
2018-09-23T15:26:15.861Z,8.40
2018-09-23T15:28:44.503Z,8.63
2018-09-23T15:31:12.837Z,9.57
2018-09-23T15:33:41.549Z,7.40
2018-09-23T15:36:10.008Z,7.90
2018-09-23T15:38:38.697Z,6.63
2018-09-23T15:41:07.764Z,4.13
2018-09-23T15:43:36.409Z,4.63
2018-09-23T15:46:04.726Z,4.77
2018-09-23T15:48:33.112Z,7.20
2018-09-23T15:51:01.787Z,5.43
2018-09-23T15:53:30.676Z,7.53
2018-09-23T15:55:59.034Z,5.40
2018-09-23T15:58:27.820Z,5.03
2018-09-23T16:00:56.545Z,5.37
2018-09-23T16:03:25.209Z,3.63
2018-09-23T16:05:53.893Z,4.27
2018-09-23T16:08:22.588Z,5.10
2018-09-23T16:10:51.321Z,4.73
2018-09-23T16:13:20.071Z,6.60
2018-09-23T16:15:48.422Z,6.73
2018-09-23T16:18:17.175Z,7.50
2018-09-23T16:20:45.494Z,6.90
2018-09-23T16:23:14.214Z,6.13
2018-09-23T16:25:43.046Z,7.27
2018-09-23T16:28:11.843Z,6.73
2018-09-23T16:30:40.594Z,7.37
2018-09-23T16:33:09.288Z,9.63
2018-09-23T16:35:37.991Z,14.07
2018-09-23T16:38:06.643Z,11.80
2018-09-23T16:40:35.383Z,11.57
2018-09-23T16:43:04.140Z,10.67
2018-09-23T16:45:32.525Z,11.47
2018-09-23T16:48:01.384Z,12.97
2018-09-23T16:50:30.152Z,11.13
2018-09-23T16:52:58.830Z,14.17
2018-09-23T16:55:27.585Z,15.43
2018-09-23T16:57:56.325Z,13.23
2018-09-23T17:00:24.691Z,9.53
2018-09-23T17:02:53.385Z,9.93
2018-09-23T17:05:22.139Z,14.00
2018-09-23T17:07:50.448Z,11.37
2018-09-23T17:10:19.203Z,12.83
2018-09-23T17:12:47.518Z,12.73
2018-09-23T17:15:16.305Z,11.00
2018-09-23T17:17:45.050Z,12.40
2018-09-23T17:20:13.745Z,10.67
2018-09-23T17:22:42.421Z,11.43
2018-09-23T17:25:11.102Z,10.57
2018-09-23T17:27:39.799Z,10.30
2018-09-23T17:30:23.506Z,12.73
2018-09-23T17:32:52.176Z,10.63
2018-09-23T17:35:20.588Z,10.90
2018-09-23T17:37:49.333Z,10.23
2018-09-23T17:40:18.123Z,9.27
2018-09-23T17:42:46.514Z,7.20
2018-09-23T17:45:15.208Z,7.93
2018-09-23T17:47:43.878Z,6.00
2018-09-23T17:50:12.372Z,7.13
2018-09-23T17:52:41.138Z,6.70
2018-09-23T17:55:09.444Z,6.13
2018-09-23T17:57:38.272Z,7.80
2018-09-23T18:00:06.699Z,6.67
2018-09-23T18:02:35.482Z,7.10
2018-09-23T18:05:04.297Z,8.47
2018-09-23T18:07:32.987Z,10.33
2018-09-23T18:10:01.683Z,5.07
2018-09-23T18:12:30.362Z,6.23
2018-09-23T18:14:59.180Z,7.20
2018-09-23T18:17:28.805Z,3.77
2018-09-23T18:19:57.246Z,4.43
2018-09-23T18:22:25.696Z,2.70
2018-09-23T18:24:54.798Z,3.43
2018-09-23T18:27:23.254Z,5.20
2018-09-23T18:29:52.011Z,4.57
2018-09-23T18:32:20.299Z,5.83
2018-09-23T18:34:49.042Z,4.57
2018-09-23T18:37:17.885Z,6.53
2018-09-23T18:39:46.625Z,5.77
2018-09-23T18:42:15.298Z,8.63
2018-09-23T18:44:43.950Z,8.97
2018-09-23T18:47:12.656Z,9.03
2018-09-23T18:49:41.148Z,11.13
2018-09-23T18:52:10.021Z,8.47
2018-09-23T18:54:43.699Z,9.10
2018-09-23T18:57:12.451Z,8.50
2018-09-23T18:59:40.990Z,9.43
2018-09-23T19:02:09.729Z,7.50
2018-09-23T19:04:38.511Z,9.30
2018-09-23T19:07:07.324Z,6.87
2018-09-23T19:09:35.788Z,5.23
2018-09-23T19:12:04.595Z,5.10
2018-09-23T19:14:33.547Z,6.43
2018-09-23T19:17:02.273Z,6.07
2018-09-23T19:19:36.201Z,7.50
2018-09-23T19:22:08.665Z,6.83
2018-09-23T19:24:37.022Z,6.13
2018-09-23T19:27:05.376Z,6.47
2018-09-23T19:29:33.886Z,7.30
2018-09-23T19:32:02.260Z,10.10
2018-09-23T19:34:30.964Z,7.00
2018-09-23T19:36:59.671Z,12.20
2018-09-23T19:39:28.119Z,8.17
2018-09-23T19:41:56.711Z,7.63
2018-09-23T19:44:25.433Z,7.07
2018-09-23T19:46:54.194Z,9.33
2018-09-23T19:49:22.888Z,7.40
2018-09-23T19:51:51.265Z,7.93
2018-09-23T19:54:19.928Z,8.67
2018-09-23T19:56:49.258Z,9.33
2018-09-23T19:59:17.540Z,8.50
2018-09-23T20:01:46.289Z,10.93
2018-09-23T20:04:15.027Z,8.10
2018-09-23T20:06:43.783Z,9.87
2018-09-23T20:09:12.164Z,8.10
2018-09-23T20:11:40.902Z,8.37
2018-09-23T20:14:09.396Z,7.70
2018-09-23T20:16:37.833Z,7.27
2018-09-23T20:19:07.283Z,7.87
2018-09-23T20:21:36.669Z,14.30
2018-09-23T20:24:05.054Z,7.80
2018-09-23T20:26:33.842Z,9.90
2018-09-23T20:29:02.534Z,7.47
2018-09-23T20:31:31.168Z,8.87
2018-09-23T20:33:59.820Z,9.63
2018-09-23T20:36:28.453Z,7.83
2018-09-23T20:38:57.163Z,9.97
2018-09-23T20:41:25.806Z,8.50
2018-09-23T20:43:54.578Z,8.17
2018-09-23T20:46:23.284Z,5.70
2018-09-23T20:48:51.976Z,10.27
2018-09-23T20:51:20.689Z,11.30
2018-09-23T20:53:49.457Z,8.30
2018-09-23T20:56:18.122Z,6.33
2018-09-23T20:58:46.989Z,6.47
2018-09-23T21:01:15.857Z,9.17
2018-09-23T21:03:44.173Z,6.00
2018-09-23T21:06:12.826Z,8.13
2018-09-23T21:08:41.510Z,9.57
2018-09-23T21:11:09.873Z,9.20
2018-09-23T21:13:38.559Z,7.00
2018-09-23T21:16:06.837Z,7.03
2018-09-23T21:18:35.513Z,8.93
2018-09-23T21:21:04.234Z,5.70
2018-09-23T21:23:32.903Z,8.60
2018-09-23T21:26:01.236Z,6.17
2018-09-23T21:28:29.885Z,6.80
2018-09-23T21:30:58.634Z,6.53
2018-09-23T21:33:26.945Z,5.10
2018-09-23T21:35:55.601Z,6.93
2018-09-23T21:38:23.945Z,7.27
2018-09-23T21:40:52.645Z,9.97
2018-09-23T21:43:21.297Z,5.27
2018-09-23T21:45:49.664Z,8.60
2018-09-23T21:48:17.950Z,6.73
2018-09-23T21:50:46.644Z,8.73
2018-09-23T21:53:15.277Z,4.77
2018-09-23T21:55:43.632Z,4.57
2018-09-23T21:58:12.468Z,6.27
2018-09-23T22:00:41.701Z,4.07
2018-09-23T22:03:11.172Z,6.90
2018-09-23T22:05:40.208Z,5.30
2018-09-23T22:08:09.479Z,6.60
2018-09-23T22:10:38.165Z,6.50
2018-09-23T22:13:07.077Z,5.47
2018-09-23T22:15:35.740Z,6.27
2018-09-23T22:18:04.488Z,9.87
2018-09-23T22:20:32.784Z,5.37
2018-09-23T22:23:01.448Z,8.07
2018-09-23T22:25:30.082Z,8.27
2018-09-23T22:27:58.432Z,4.83
2018-09-23T22:30:27.079Z,7.17
2018-09-23T22:32:55.348Z,5.77
2018-09-23T22:35:24.012Z,5.03
2018-09-23T22:37:52.702Z,3.77
2018-09-23T22:40:21.420Z,5.70
2018-09-23T22:42:49.748Z,4.30
2018-09-23T22:45:18.444Z,10.00
2018-09-23T22:47:46.730Z,5.80
2018-09-23T22:50:15.421Z,6.00
2018-09-23T22:52:44.100Z,4.97
2018-09-23T22:55:12.802Z,3.73
2018-09-23T22:57:41.156Z,5.67
2018-09-23T23:00:09.957Z,4.27
2018-09-23T23:02:38.639Z,8.37
2018-09-23T23:05:07.483Z,9.47
2018-09-23T23:07:36.173Z,7.80
2018-09-23T23:10:04.907Z,7.23
2018-09-23T23:12:33.558Z,8.20
2018-09-23T23:15:01.824Z,5.97
2018-09-23T23:17:30.184Z,4.60
2018-09-23T23:19:58.844Z,5.90
2018-09-23T23:22:27.521Z,8.10
2018-09-23T23:24:56.195Z,7.30
2018-09-23T23:27:24.489Z,4.63
2018-09-23T23:29:52.776Z,7.47
2018-09-23T23:32:21.443Z,6.53
2018-09-23T23:34:50.084Z,8.10
2018-09-23T23:37:18.752Z,7.03
2018-09-23T23:39:47.402Z,5.63
2018-09-23T23:42:15.686Z,4.73
2018-09-23T23:44:44.372Z,5.10
2018-09-23T23:47:12.747Z,6.27
2018-09-23T23:49:41.408Z,5.63
2018-09-23T23:52:10.117Z,8.30
2018-09-23T23:54:38.454Z,7.33
2018-09-23T23:57:07.124Z,8.13
2018-09-23T23:59:35.827Z,6.07
